sensor_id;sensor_type;location;lat;lon;timestamp;P1;durP1;ratioP1;P2;durP2;ratioP2
30010;SDS011;16851;53.564;8.112;2022-10-26T00:00:41;20.57;;;11.80;;
30010;SDS011;16851;53.564;8.112;2022-10-26T00:05:49;20.23;;;12.87;;
30010;SDS011;16851;53.564;8.112;2022-10-26T00:10:56;23.77;;;14.70;;
30010;SDS011;16851;53.564;8.112;2022-10-26T00:15:58;22.23;;;14.33;;
30010;SDS011;16851;53.564;8.112;2022-10-26T00:21:03;19.03;;;14.10;;
30010;SDS011;16851;53.564;8.112;2022-10-26T00:26:11;22.00;;;14.63;;
30010;SDS011;16851;53.564;8.112;2022-10-26T00:31:17;27.90;;;17.43;;
30010;SDS011;16851;53.564;8.112;2022-10-26T00:36:22;15.30;;;11.40;;
30010;SDS011;16851;53.564;8.112;2022-10-26T00:41:29;16.98;;;12.68;;
30010;SDS011;16851;53.564;8.112;2022-10-26T00:46:35;23.33;;;14.80;;
30010;SDS011;16851;53.564;8.112;2022-10-26T00:51:43;29.67;;;17.97;;
30010;SDS011;16851;53.564;8.112;2022-10-26T00:56:50;27.53;;;15.87;;
30010;SDS011;16851;53.564;8.112;2022-10-26T01:01:52;24.40;;;16.02;;
30010;SDS011;16851;53.564;8.112;2022-10-26T01:07:15;31.60;;;17.93;;
30010;SDS011;16851;53.564;8.112;2022-10-26T01:12:30;30.23;;;19.40;;
30010;SDS011;16851;53.564;8.112;2022-10-26T01:28:30;35.20;;;20.27;;
30010;SDS011;16851;53.564;8.112;2022-10-26T01:33:38;30.60;;;18.23;;
30010;SDS011;16851;53.564;8.112;2022-10-26T01:44:15;33.60;;;19.60;;
30010;SDS011;16851;53.564;8.112;2022-10-26T01:49:30;30.00;;;20.13;;
30010;SDS011;16851;53.564;8.112;2022-10-26T01:54:34;35.03;;;20.93;;
30010;SDS011;16851;53.564;8.112;2022-10-26T01:59:59;33.60;;;20.43;;
30010;SDS011;16851;53.564;8.112;2022-10-26T02:10:41;29.07;;;18.97;;
30010;SDS011;16851;53.564;8.112;2022-10-26T02:16:28;23.67;;;16.30;;
30010;SDS011;16851;53.564;8.112;2022-10-26T02:21:48;25.23;;;15.73;;
30010;SDS011;16851;53.564;8.112;2022-10-26T02:26:55;21.47;;;16.23;;
30010;SDS011;16851;53.564;8.112;2022-10-26T02:32:02;30.27;;;17.20;;
30010;SDS011;16851;53.564;8.112;2022-10-26T02:37:07;28.07;;;18.57;;
30010;SDS011;16851;53.564;8.112;2022-10-26T02:42:09;30.80;;;17.27;;
30010;SDS011;16851;53.564;8.112;2022-10-26T02:47:14;39.70;;;21.80;;
30010;SDS011;16851;53.564;8.112;2022-10-26T02:57:37;37.90;;;22.77;;
30010;SDS011;16851;53.564;8.112;2022-10-26T03:02:42;43.93;;;22.13;;
30010;SDS011;16851;53.564;8.112;2022-10-26T03:07:49;44.03;;;25.63;;
30010;SDS011;16851;53.564;8.112;2022-10-26T03:12:53;36.13;;;24.03;;
30010;SDS011;16851;53.564;8.112;2022-10-26T03:17:55;39.97;;;26.17;;
30010;SDS011;16851;53.564;8.112;2022-10-26T03:22:59;44.30;;;27.93;;
30010;SDS011;16851;53.564;8.112;2022-10-26T03:28:02;34.47;;;24.80;;
30010;SDS011;16851;53.564;8.112;2022-10-26T03:33:10;30.47;;;21.87;;
30010;SDS011;16851;53.564;8.112;2022-10-26T03:38:13;41.50;;;25.73;;
30010;SDS011;16851;53.564;8.112;2022-10-26T03:43:16;60.93;;;31.37;;
30010;SDS011;16851;53.564;8.112;2022-10-26T03:48:23;62.77;;;30.93;;
30010;SDS011;16851;53.564;8.112;2022-10-26T03:53:25;58.30;;;34.37;;
30010;SDS011;16851;53.564;8.112;2022-10-26T03:58:27;49.53;;;30.30;;
30010;SDS011;16851;53.564;8.112;2022-10-26T04:03:32;59.30;;;34.77;;
30010;SDS011;16851;53.564;8.112;2022-10-26T04:08:34;65.03;;;35.70;;
30010;SDS011;16851;53.564;8.112;2022-10-26T04:13:36;52.73;;;33.53;;
30010;SDS011;16851;53.564;8.112;2022-10-26T04:18:40;68.47;;;34.07;;
30010;SDS011;16851;53.564;8.112;2022-10-26T04:23:42;56.00;;;33.20;;
30010;SDS011;16851;53.564;8.112;2022-10-26T04:28:46;57.00;;;31.10;;
30010;SDS011;16851;53.564;8.112;2022-10-26T04:33:48;55.20;;;32.60;;
30010;SDS011;16851;53.564;8.112;2022-10-26T04:38:53;75.87;;;36.63;;
30010;SDS011;16851;53.564;8.112;2022-10-26T04:43:58;55.73;;;31.40;;
30010;SDS011;16851;53.564;8.112;2022-10-26T04:49:03;58.90;;;33.10;;
30010;SDS011;16851;53.564;8.112;2022-10-26T04:54:05;69.27;;;36.67;;
30010;SDS011;16851;53.564;8.112;2022-10-26T04:59:07;58.77;;;35.27;;
30010;SDS011;16851;53.564;8.112;2022-10-26T05:04:16;62.13;;;36.03;;
30010;SDS011;16851;53.564;8.112;2022-10-26T05:09:25;59.83;;;33.33;;
30010;SDS011;16851;53.564;8.112;2022-10-26T05:14:27;54.23;;;30.00;;
30010;SDS011;16851;53.564;8.112;2022-10-26T05:19:33;64.93;;;36.33;;
30010;SDS011;16851;53.564;8.112;2022-10-26T05:24:35;55.40;;;32.87;;
30010;SDS011;16851;53.564;8.112;2022-10-26T05:29:39;62.10;;;33.73;;
30010;SDS011;16851;53.564;8.112;2022-10-26T05:34:47;50.60;;;33.00;;
30010;SDS011;16851;53.564;8.112;2022-10-26T05:39:55;50.33;;;31.87;;
30010;SDS011;16851;53.564;8.112;2022-10-26T05:45:02;69.97;;;37.60;;
30010;SDS011;16851;53.564;8.112;2022-10-26T05:50:04;64.77;;;35.27;;
30010;SDS011;16851;53.564;8.112;2022-10-26T05:55:15;83.57;;;39.77;;
30010;SDS011;16851;53.564;8.112;2022-10-26T06:00:19;56.63;;;31.60;;
30010;SDS011;16851;53.564;8.112;2022-10-26T06:05:25;58.97;;;33.50;;
30010;SDS011;16851;53.564;8.112;2022-10-26T06:10:30;57.07;;;31.83;;
30010;SDS011;16851;53.564;8.112;2022-10-26T06:15:39;55.07;;;31.07;;
30010;SDS011;16851;53.564;8.112;2022-10-26T06:21:18;65.33;;;33.87;;
30010;SDS011;16851;53.564;8.112;2022-10-26T06:26:33;66.67;;;33.20;;
30010;SDS011;16851;53.564;8.112;2022-10-26T06:31:45;62.30;;;32.17;;
30010;SDS011;16851;53.564;8.112;2022-10-26T06:36:47;60.67;;;32.83;;
30010;SDS011;16851;53.564;8.112;2022-10-26T06:41:52;73.50;;;34.67;;
30010;SDS011;16851;53.564;8.112;2022-10-26T06:47:02;71.90;;;32.97;;
30010;SDS011;16851;53.564;8.112;2022-10-26T06:52:12;57.20;;;31.57;;
30010;SDS011;16851;53.564;8.112;2022-10-26T06:57:21;57.33;;;30.77;;
30010;SDS011;16851;53.564;8.112;2022-10-26T07:02:31;57.60;;;31.17;;
30010;SDS011;16851;53.564;8.112;2022-10-26T07:07:34;57.30;;;29.73;;
30010;SDS011;16851;53.564;8.112;2022-10-26T07:12:37;57.67;;;29.40;;
30010;SDS011;16851;53.564;8.112;2022-10-26T07:17:45;49.00;;;27.33;;
30010;SDS011;16851;53.564;8.112;2022-10-26T07:22:53;52.30;;;28.27;;
30010;SDS011;16851;53.564;8.112;2022-10-26T07:28:00;44.37;;;25.73;;
30010;SDS011;16851;53.564;8.112;2022-10-26T07:33:05;43.80;;;25.93;;
30010;SDS011;16851;53.564;8.112;2022-10-26T07:38:09;37.20;;;23.90;;
30010;SDS011;16851;53.564;8.112;2022-10-26T07:43:16;37.13;;;21.67;;
30010;SDS011;16851;53.564;8.112;2022-10-26T07:48:18;33.27;;;21.80;;
30010;SDS011;16851;53.564;8.112;2022-10-26T07:53:26;33.57;;;20.97;;
30010;SDS011;16851;53.564;8.112;2022-10-26T07:58:34;31.67;;;20.70;;
30010;SDS011;16851;53.564;8.112;2022-10-26T08:03:36;29.13;;;19.27;;
30010;SDS011;16851;53.564;8.112;2022-10-26T08:08:43;25.42;;;18.17;;
30010;SDS011;16851;53.564;8.112;2022-10-26T08:13:55;35.58;;;19.13;;
30010;SDS011;16851;53.564;8.112;2022-10-26T08:19:00;28.97;;;20.77;;
30010;SDS011;16851;53.564;8.112;2022-10-26T08:24:03;25.37;;;18.17;;
30010;SDS011;16851;53.564;8.112;2022-10-26T08:29:06;30.53;;;18.83;;
30010;SDS011;16851;53.564;8.112;2022-10-26T08:34:10;25.23;;;16.88;;
30010;SDS011;16851;53.564;8.112;2022-10-26T08:39:14;22.17;;;14.60;;
30010;SDS011;16851;53.564;8.112;2022-10-26T08:49:29;23.42;;;14.10;;
30010;SDS011;16851;53.564;8.112;2022-10-26T08:54:55;19.13;;;12.73;;
30010;SDS011;16851;53.564;8.112;2022-10-26T08:59:59;21.90;;;13.02;;
30010;SDS011;16851;53.564;8.112;2022-10-26T09:05:05;18.77;;;11.98;;
30010;SDS011;16851;53.564;8.112;2022-10-26T09:10:53;19.70;;;10.40;;
30010;SDS011;16851;53.564;8.112;2022-10-26T09:16:06;15.73;;;9.68;;
30010;SDS011;16851;53.564;8.112;2022-10-26T09:31:55;17.02;;;9.68;;
30010;SDS011;16851;53.564;8.112;2022-10-26T09:37:04;15.40;;;9.20;;
30010;SDS011;16851;53.564;8.112;2022-10-26T09:42:26;14.13;;;8.95;;
30010;SDS011;16851;53.564;8.112;2022-10-26T09:47:42;12.80;;;8.77;;
30010;SDS011;16851;53.564;8.112;2022-10-26T09:52:51;13.77;;;8.95;;
30010;SDS011;16851;53.564;8.112;2022-10-26T09:57:55;12.82;;;8.93;;
30010;SDS011;16851;53.564;8.112;2022-10-26T10:03:00;13.45;;;8.63;;
30010;SDS011;16851;53.564;8.112;2022-10-26T10:13:20;14.40;;;8.25;;
30010;SDS011;16851;53.564;8.112;2022-10-26T10:18:30;13.43;;;9.13;;
30010;SDS011;16851;53.564;8.112;2022-10-26T10:23:50;15.48;;;8.35;;
30010;SDS011;16851;53.564;8.112;2022-10-26T10:28:57;10.63;;;7.50;;
30010;SDS011;16851;53.564;8.112;2022-10-26T10:34:13;11.52;;;7.63;;
30010;SDS011;16851;53.564;8.112;2022-10-26T10:39:25;9.90;;;7.65;;
30010;SDS011;16851;53.564;8.112;2022-10-26T10:44:39;8.95;;;6.95;;
30010;SDS011;16851;53.564;8.112;2022-10-26T10:49:50;9.10;;;6.53;;
30010;SDS011;16851;53.564;8.112;2022-10-26T10:55:20;11.07;;;6.78;;
30010;SDS011;16851;53.564;8.112;2022-10-26T11:00:35;11.18;;;6.45;;
30010;SDS011;16851;53.564;8.112;2022-10-26T11:16:30;7.97;;;5.60;;
30010;SDS011;16851;53.564;8.112;2022-10-26T11:21:39;9.57;;;6.10;;
30010;SDS011;16851;53.564;8.112;2022-10-26T11:32:05;7.68;;;5.40;;
30010;SDS011;16851;53.564;8.112;2022-10-26T11:42:50;10.20;;;5.70;;
30010;SDS011;16851;53.564;8.112;2022-10-26T11:53:38;9.55;;;5.30;;
30010;SDS011;16851;53.564;8.112;2022-10-26T11:58:43;12.68;;;5.53;;
30010;SDS011;16851;53.564;8.112;2022-10-26T12:03:47;11.55;;;5.57;;
30010;SDS011;16851;53.564;8.112;2022-10-26T12:08:56;11.10;;;5.60;;
30010;SDS011;16851;53.564;8.112;2022-10-26T12:24:30;10.68;;;5.28;;
30010;SDS011;16851;53.564;8.112;2022-10-26T12:29:43;10.85;;;4.57;;
30010;SDS011;16851;53.564;8.112;2022-10-26T12:39:52;10.13;;;4.57;;
30010;SDS011;16851;53.564;8.112;2022-10-26T13:00:28;7.75;;;2.63;;
30010;SDS011;16851;53.564;8.112;2022-10-26T13:11:17;5.65;;;3.22;;
30010;SDS011;16851;53.564;8.112;2022-10-26T13:16:22;10.30;;;3.60;;
30010;SDS011;16851;53.564;8.112;2022-10-26T13:21:25;7.75;;;3.67;;
30010;SDS011;16851;53.564;8.112;2022-10-26T13:27:20;14.70;;;3.92;;
30010;SDS011;16851;53.564;8.112;2022-10-26T13:32:09;7.47;;;3.40;;
30010;SDS011;16851;53.564;8.112;2022-10-26T13:37:21;6.80;;;3.58;;
30010;SDS011;16851;53.564;8.112;2022-10-26T13:42:40;8.80;;;3.83;;
30010;SDS011;16851;53.564;8.112;2022-10-26T13:53:20;8.60;;;3.63;;
30010;SDS011;16851;53.564;8.112;2022-10-26T13:58:30;8.52;;;4.53;;
30010;SDS011;16851;53.564;8.112;2022-10-26T14:03:37;9.52;;;4.45;;
30010;SDS011;16851;53.564;8.112;2022-10-26T14:08:41;8.05;;;4.95;;
30010;SDS011;16851;53.564;8.112;2022-10-26T14:13:47;14.45;;;3.97;;
30010;SDS011;16851;53.564;8.112;2022-10-26T14:18:50;12.98;;;6.13;;
30010;SDS011;16851;53.564;8.112;2022-10-26T14:28:57;11.57;;;4.18;;
30010;SDS011;16851;53.564;8.112;2022-10-26T14:34:04;8.20;;;4.15;;
30010;SDS011;16851;53.564;8.112;2022-10-26T14:39:07;6.65;;;3.80;;
30010;SDS011;16851;53.564;8.112;2022-10-26T14:44:19;8.52;;;4.47;;
30010;SDS011;16851;53.564;8.112;2022-10-26T14:49:25;10.40;;;4.15;;
30010;SDS011;16851;53.564;8.112;2022-10-26T14:54:28;9.50;;;4.18;;
30010;SDS011;16851;53.564;8.112;2022-10-26T14:59:30;11.40;;;4.60;;
30010;SDS011;16851;53.564;8.112;2022-10-26T15:14:47;8.90;;;3.65;;
30010;SDS011;16851;53.564;8.112;2022-10-26T15:19:54;6.85;;;3.08;;
30010;SDS011;16851;53.564;8.112;2022-10-26T15:24:57;7.57;;;3.28;;
30010;SDS011;16851;53.564;8.112;2022-10-26T15:35:39;10.63;;;3.15;;
30010;SDS011;16851;53.564;8.112;2022-10-26T15:40:43;6.50;;;3.35;;
30010;SDS011;16851;53.564;8.112;2022-10-26T15:45:47;11.20;;;3.40;;
30010;SDS011;16851;53.564;8.112;2022-10-26T15:50:52;8.45;;;3.28;;
30010;SDS011;16851;53.564;8.112;2022-10-26T15:55:54;8.45;;;3.00;;
30010;SDS011;16851;53.564;8.112;2022-10-26T16:00:57;5.03;;;2.90;;
30010;SDS011;16851;53.564;8.112;2022-10-26T16:06:00;7.28;;;3.17;;
30010;SDS011;16851;53.564;8.112;2022-10-26T16:11:03;10.00;;;3.42;;
30010;SDS011;16851;53.564;8.112;2022-10-26T16:16:12;10.32;;;3.40;;
30010;SDS011;16851;53.564;8.112;2022-10-26T16:21:18;8.90;;;3.75;;
30010;SDS011;16851;53.564;8.112;2022-10-26T16:26:23;7.53;;;3.05;;
30010;SDS011;16851;53.564;8.112;2022-10-26T16:31:25;7.85;;;3.05;;
30010;SDS011;16851;53.564;8.112;2022-10-26T16:36:30;12.95;;;3.88;;
30010;SDS011;16851;53.564;8.112;2022-10-26T16:41:35;7.70;;;3.15;;
30010;SDS011;16851;53.564;8.112;2022-10-26T16:46:39;10.48;;;3.22;;
30010;SDS011;16851;53.564;8.112;2022-10-26T16:51:43;9.05;;;3.65;;
30010;SDS011;16851;53.564;8.112;2022-10-26T16:56:45;9.38;;;4.03;;
30010;SDS011;16851;53.564;8.112;2022-10-26T17:01:47;11.80;;;4.63;;
30010;SDS011;16851;53.564;8.112;2022-10-26T17:06:56;14.38;;;4.95;;
30010;SDS011;16851;53.564;8.112;2022-10-26T17:11:58;9.02;;;4.05;;
30010;SDS011;16851;53.564;8.112;2022-10-26T17:17:03;7.00;;;3.97;;
30010;SDS011;16851;53.564;8.112;2022-10-26T17:22:05;7.65;;;3.70;;
30010;SDS011;16851;53.564;8.112;2022-10-26T17:27:09;12.30;;;3.65;;
30010;SDS011;16851;53.564;8.112;2022-10-26T17:32:14;11.82;;;4.53;;
30010;SDS011;16851;53.564;8.112;2022-10-26T17:37:18;9.03;;;5.70;;
30010;SDS011;16851;53.564;8.112;2022-10-26T17:42:39;11.60;;;5.13;;
30010;SDS011;16851;53.564;8.112;2022-10-26T17:47:42;8.82;;;5.90;;
30010;SDS011;16851;53.564;8.112;2022-10-26T17:52:46;11.63;;;5.88;;
30010;SDS011;16851;53.564;8.112;2022-10-26T17:57:52;11.65;;;6.65;;
30010;SDS011;16851;53.564;8.112;2022-10-26T18:02:54;12.30;;;6.80;;
30010;SDS011;16851;53.564;8.112;2022-10-26T18:07:57;16.33;;;7.47;;
30010;SDS011;16851;53.564;8.112;2022-10-26T18:12:59;9.68;;;7.07;;
30010;SDS011;16851;53.564;8.112;2022-10-26T18:18:06;11.48;;;6.90;;
30010;SDS011;16851;53.564;8.112;2022-10-26T18:23:08;18.30;;;10.00;;
30010;SDS011;16851;53.564;8.112;2022-10-26T18:28:15;19.10;;;10.23;;
30010;SDS011;16851;53.564;8.112;2022-10-26T18:33:18;16.05;;;9.20;;
30010;SDS011;16851;53.564;8.112;2022-10-26T18:38:20;14.45;;;8.82;;
30010;SDS011;16851;53.564;8.112;2022-10-26T18:43:22;20.75;;;9.75;;
30010;SDS011;16851;53.564;8.112;2022-10-26T18:48:24;15.40;;;9.25;;
30010;SDS011;16851;53.564;8.112;2022-10-26T18:53:26;19.13;;;10.18;;
30010;SDS011;16851;53.564;8.112;2022-10-26T18:58:28;15.80;;;9.38;;
30010;SDS011;16851;53.564;8.112;2022-10-26T19:03:32;18.30;;;10.32;;
30010;SDS011;16851;53.564;8.112;2022-10-26T19:08:34;17.02;;;9.68;;
30010;SDS011;16851;53.564;8.112;2022-10-26T19:13:38;19.15;;;10.80;;
30010;SDS011;16851;53.564;8.112;2022-10-26T19:18:42;16.33;;;10.45;;
30010;SDS011;16851;53.564;8.112;2022-10-26T19:23:52;18.95;;;10.25;;
30010;SDS011;16851;53.564;8.112;2022-10-26T19:29:01;16.23;;;9.90;;
30010;SDS011;16851;53.564;8.112;2022-10-26T19:34:09;18.73;;;10.38;;
30010;SDS011;16851;53.564;8.112;2022-10-26T19:39:12;14.55;;;10.20;;
30010;SDS011;16851;53.564;8.112;2022-10-26T19:44:16;12.45;;;10.57;;
30010;SDS011;16851;53.564;8.112;2022-10-26T19:49:25;16.98;;;10.95;;
30010;SDS011;16851;53.564;8.112;2022-10-26T19:54:29;17.67;;;10.63;;
30010;SDS011;16851;53.564;8.112;2022-10-26T19:59:31;15.98;;;11.43;;
30010;SDS011;16851;53.564;8.112;2022-10-26T20:04:36;19.90;;;10.77;;
30010;SDS011;16851;53.564;8.112;2022-10-26T20:09:40;16.70;;;10.80;;
30010;SDS011;16851;53.564;8.112;2022-10-26T20:14:44;19.85;;;11.40;;
30010;SDS011;16851;53.564;8.112;2022-10-26T20:19:48;16.35;;;10.88;;
30010;SDS011;16851;53.564;8.112;2022-10-26T20:24:56;21.45;;;11.23;;
30010;SDS011;16851;53.564;8.112;2022-10-26T20:30:00;20.70;;;11.98;;
30010;SDS011;16851;53.564;8.112;2022-10-26T20:35:04;19.77;;;11.48;;
30010;SDS011;16851;53.564;8.112;2022-10-26T20:40:08;18.30;;;11.50;;
30010;SDS011;16851;53.564;8.112;2022-10-26T20:50:19;18.05;;;12.60;;
30010;SDS011;16851;53.564;8.112;2022-10-26T21:00:52;19.33;;;11.70;;
30010;SDS011;16851;53.564;8.112;2022-10-26T21:06:07;21.00;;;12.38;;
30010;SDS011;16851;53.564;8.112;2022-10-26T21:11:10;21.00;;;11.63;;
30010;SDS011;16851;53.564;8.112;2022-10-26T21:16:16;17.83;;;11.70;;
30010;SDS011;16851;53.564;8.112;2022-10-26T21:21:23;20.02;;;12.60;;
30010;SDS011;16851;53.564;8.112;2022-10-26T21:26:30;16.65;;;12.13;;
30010;SDS011;16851;53.564;8.112;2022-10-26T21:31:32;15.85;;;12.40;;
30010;SDS011;16851;53.564;8.112;2022-10-26T21:36:38;22.48;;;12.93;;
30010;SDS011;16851;53.564;8.112;2022-10-26T21:41:40;20.83;;;12.85;;
30010;SDS011;16851;53.564;8.112;2022-10-26T21:46:47;26.23;;;13.10;;
30010;SDS011;16851;53.564;8.112;2022-10-26T21:51:53;25.05;;;12.13;;
30010;SDS011;16851;53.564;8.112;2022-10-26T21:56:58;17.60;;;11.98;;
30010;SDS011;16851;53.564;8.112;2022-10-26T22:02:00;18.45;;;11.70;;
30010;SDS011;16851;53.564;8.112;2022-10-26T22:07:04;20.70;;;12.88;;
30010;SDS011;16851;53.564;8.112;2022-10-26T22:12:06;21.35;;;11.88;;
30010;SDS011;16851;53.564;8.112;2022-10-26T22:17:09;18.65;;;13.23;;
30010;SDS011;16851;53.564;8.112;2022-10-26T22:22:15;17.98;;;13.10;;
30010;SDS011;16851;53.564;8.112;2022-10-26T22:27:24;19.30;;;13.52;;
30010;SDS011;16851;53.564;8.112;2022-10-26T22:32:26;24.40;;;13.48;;
30010;SDS011;16851;53.564;8.112;2022-10-26T22:37:30;21.73;;;12.73;;
30010;SDS011;16851;53.564;8.112;2022-10-26T22:42:34;17.05;;;11.93;;
30010;SDS011;16851;53.564;8.112;2022-10-26T22:47:38;22.02;;;13.60;;
30010;SDS011;16851;53.564;8.112;2022-10-26T22:52:46;16.10;;;11.85;;
30010;SDS011;16851;53.564;8.112;2022-10-26T22:57:48;17.83;;;12.30;;
30010;SDS011;16851;53.564;8.112;2022-10-26T23:02:55;21.17;;;13.07;;
30010;SDS011;16851;53.564;8.112;2022-10-26T23:07:57;23.02;;;13.32;;
30010;SDS011;16851;53.564;8.112;2022-10-26T23:13:04;22.27;;;13.88;;
30010;SDS011;16851;53.564;8.112;2022-10-26T23:18:10;24.33;;;14.82;;
30010;SDS011;16851;53.564;8.112;2022-10-26T23:23:17;24.58;;;14.27;;
30010;SDS011;16851;53.564;8.112;2022-10-26T23:28:19;23.27;;;15.30;;
30010;SDS011;16851;53.564;8.112;2022-10-26T23:33:23;23.60;;;13.77;;
30010;SDS011;16851;53.564;8.112;2022-10-26T23:38:33;23.05;;;13.18;;
30010;SDS011;16851;53.564;8.112;2022-10-26T23:43:34;20.73;;;12.85;;
30010;SDS011;16851;53.564;8.112;2022-10-26T23:48:41;21.27;;;12.95;;
30010;SDS011;16851;53.564;8.112;2022-10-26T23:53:47;17.85;;;12.43;;
30010;SDS011;16851;53.564;8.112;2022-10-26T23:58:56;24.08;;;13.77;;
